sensor_id;sensor_type;location;lat;lon;timestamp;P1;durP1;ratioP1;P2;durP2;ratioP2
6243;SDS011;3155;49.940;8.450;2022-11-09T00:00:48;1.38;;;0.95;;
6243;SDS011;3155;49.940;8.450;2022-11-09T00:03:15;0.80;;;0.80;;
6243;SDS011;3155;49.940;8.450;2022-11-09T00:05:43;4.18;;;2.00;;
6243;SDS011;3155;49.940;8.450;2022-11-09T00:08:19;1.42;;;1.33;;
6243;SDS011;3155;49.940;8.450;2022-11-09T00:10:45;2.10;;;1.63;;
6243;SDS011;3155;49.940;8.450;2022-11-09T00:13:12;1.10;;;1.05;;
6243;SDS011;3155;49.940;8.450;2022-11-09T00:15:39;0.60;;;0.60;;
6243;SDS011;3155;49.940;8.450;2022-11-09T00:18:05;0.73;;;0.73;;
6243;SDS011;3155;49.940;8.450;2022-11-09T00:20:32;0.80;;;0.80;;
6243;SDS011;3155;49.940;8.450;2022-11-09T00:22:59;0.90;;;0.90;;
6243;SDS011;3155;49.940;8.450;2022-11-09T00:25:25;0.80;;;0.77;;
6243;SDS011;3155;49.940;8.450;2022-11-09T00:27:55;0.55;;;0.55;;
6243;SDS011;3155;49.940;8.450;2022-11-09T00:30:22;1.83;;;0.73;;
6243;SDS011;3155;49.940;8.450;2022-11-09T00:32:49;0.70;;;0.70;;
6243;SDS011;3155;49.940;8.450;2022-11-09T00:35:18;0.70;;;0.68;;
6243;SDS011;3155;49.940;8.450;2022-11-09T00:37:48;0.75;;;0.75;;
6243;SDS011;3155;49.940;8.450;2022-11-09T00:40:18;0.70;;;0.60;;
6243;SDS011;3155;49.940;8.450;2022-11-09T00:42:45;2.60;;;0.80;;
6243;SDS011;3155;49.940;8.450;2022-11-09T00:45:12;0.90;;;0.70;;
6243;SDS011;3155;49.940;8.450;2022-11-09T00:47:41;0.55;;;0.55;;
6243;SDS011;3155;49.940;8.450;2022-11-09T00:50:08;0.65;;;0.65;;
6243;SDS011;3155;49.940;8.450;2022-11-09T00:52:35;1.40;;;0.60;;
6243;SDS011;3155;49.940;8.450;2022-11-09T00:55:01;0.70;;;0.60;;
6243;SDS011;3155;49.940;8.450;2022-11-09T00:57:31;1.15;;;0.77;;
6243;SDS011;3155;49.940;8.450;2022-11-09T00:59:58;0.70;;;0.70;;
6243;SDS011;3155;49.940;8.450;2022-11-09T01:02:25;0.55;;;0.55;;
6243;SDS011;3155;49.940;8.450;2022-11-09T01:04:53;0.90;;;0.60;;
6243;SDS011;3155;49.940;8.450;2022-11-09T01:07:20;0.60;;;0.60;;
6243;SDS011;3155;49.940;8.450;2022-11-09T01:09:47;0.80;;;0.70;;
6243;SDS011;3155;49.940;8.450;2022-11-09T01:12:13;0.73;;;0.73;;
6243;SDS011;3155;49.940;8.450;2022-11-09T01:14:40;0.55;;;0.55;;
6243;SDS011;3155;49.940;8.450;2022-11-09T01:17:07;0.68;;;0.68;;
6243;SDS011;3155;49.940;8.450;2022-11-09T01:19:33;0.45;;;0.45;;
6243;SDS011;3155;49.940;8.450;2022-11-09T01:22:00;0.57;;;0.57;;
6243;SDS011;3155;49.940;8.450;2022-11-09T01:24:27;0.52;;;0.52;;
6243;SDS011;3155;49.940;8.450;2022-11-09T01:26:53;0.82;;;0.82;;
6243;SDS011;3155;49.940;8.450;2022-11-09T01:29:20;0.68;;;0.68;;
6243;SDS011;3155;49.940;8.450;2022-11-09T01:31:47;0.63;;;0.63;;
6243;SDS011;3155;49.940;8.450;2022-11-09T01:34:14;0.50;;;0.50;;
6243;SDS011;3155;49.940;8.450;2022-11-09T01:36:48;0.50;;;0.50;;
6243;SDS011;3155;49.940;8.450;2022-11-09T01:39:16;0.50;;;0.50;;
6243;SDS011;3155;49.940;8.450;2022-11-09T01:41:44;0.82;;;0.52;;
6243;SDS011;3155;49.940;8.450;2022-11-09T01:44:13;0.55;;;0.55;;
6243;SDS011;3155;49.940;8.450;2022-11-09T01:46:52;2.08;;;0.80;;
6243;SDS011;3155;49.940;8.450;2022-11-09T01:52:34;0.43;;;0.43;;
6243;SDS011;3155;49.940;8.450;2022-11-09T01:55:05;0.60;;;0.60;;
6243;SDS011;3155;49.940;8.450;2022-11-09T01:57:35;0.57;;;0.57;;
6243;SDS011;3155;49.940;8.450;2022-11-09T02:00:10;0.80;;;0.80;;
6243;SDS011;3155;49.940;8.450;2022-11-09T02:02:43;1.00;;;0.47;;
6243;SDS011;3155;49.940;8.450;2022-11-09T02:05:22;0.60;;;0.60;;
6243;SDS011;3155;49.940;8.450;2022-11-09T02:07:51;0.88;;;0.65;;
6243;SDS011;3155;49.940;8.450;2022-11-09T02:10:21;0.68;;;0.60;;
6243;SDS011;3155;49.940;8.450;2022-11-09T02:12:52;0.50;;;0.40;;
6243;SDS011;3155;49.940;8.450;2022-11-09T02:15:20;0.85;;;0.70;;
6243;SDS011;3155;49.940;8.450;2022-11-09T02:17:49;0.30;;;0.30;;
6243;SDS011;3155;49.940;8.450;2022-11-09T02:20:18;0.60;;;0.60;;
6243;SDS011;3155;49.940;8.450;2022-11-09T02:22:46;2.30;;;0.70;;
6243;SDS011;3155;49.940;8.450;2022-11-09T02:25:16;0.57;;;0.47;;
6243;SDS011;3155;49.940;8.450;2022-11-09T02:27:43;0.73;;;0.73;;
6243;SDS011;3155;49.940;8.450;2022-11-09T02:30:10;0.75;;;0.75;;
6243;SDS011;3155;49.940;8.450;2022-11-09T02:32:38;0.73;;;0.60;;
6243;SDS011;3155;49.940;8.450;2022-11-09T02:35:05;0.70;;;0.70;;
6243;SDS011;3155;49.940;8.450;2022-11-09T02:37:43;0.50;;;0.50;;
6243;SDS011;3155;49.940;8.450;2022-11-09T02:40:17;0.38;;;0.38;;
6243;SDS011;3155;49.940;8.450;2022-11-09T02:42:47;0.30;;;0.30;;
6243;SDS011;3155;49.940;8.450;2022-11-09T02:45:14;0.40;;;0.40;;
6243;SDS011;3155;49.940;8.450;2022-11-09T02:47:41;0.33;;;0.33;;
6243;SDS011;3155;49.940;8.450;2022-11-09T02:50:08;0.40;;;0.30;;
6243;SDS011;3155;49.940;8.450;2022-11-09T02:52:35;1.40;;;0.40;;
6243;SDS011;3155;49.940;8.450;2022-11-09T02:55:02;0.40;;;0.40;;
6243;SDS011;3155;49.940;8.450;2022-11-09T02:57:29;0.35;;;0.28;;
6243;SDS011;3155;49.940;8.450;2022-11-09T02:59:55;0.33;;;0.30;;
6243;SDS011;3155;49.940;8.450;2022-11-09T03:02:22;0.50;;;0.50;;
6243;SDS011;3155;49.940;8.450;2022-11-09T03:04:49;0.32;;;0.32;;
6243;SDS011;3155;49.940;8.450;2022-11-09T03:07:15;0.30;;;0.30;;
6243;SDS011;3155;49.940;8.450;2022-11-09T03:09:42;0.25;;;0.25;;
6243;SDS011;3155;49.940;8.450;2022-11-09T03:12:11;0.40;;;0.30;;
6243;SDS011;3155;49.940;8.450;2022-11-09T03:14:56;0.20;;;0.20;;
6243;SDS011;3155;49.940;8.450;2022-11-09T03:17:27;0.25;;;0.25;;
6243;SDS011;3155;49.940;8.450;2022-11-09T03:19:54;0.40;;;0.40;;
6243;SDS011;3155;49.940;8.450;2022-11-09T03:22:21;0.30;;;0.30;;
6243;SDS011;3155;49.940;8.450;2022-11-09T03:24:48;1.20;;;0.38;;
6243;SDS011;3155;49.940;8.450;2022-11-09T03:27:14;0.35;;;0.35;;
6243;SDS011;3155;49.940;8.450;2022-11-09T03:29:42;0.30;;;0.30;;
6243;SDS011;3155;49.940;8.450;2022-11-09T03:32:08;0.40;;;0.40;;
6243;SDS011;3155;49.940;8.450;2022-11-09T03:34:35;0.60;;;0.40;;
6243;SDS011;3155;49.940;8.450;2022-11-09T03:37:02;0.65;;;0.55;;
6243;SDS011;3155;49.940;8.450;2022-11-09T03:39:29;0.50;;;0.50;;
6243;SDS011;3155;49.940;8.450;2022-11-09T03:41:56;0.43;;;0.43;;
6243;SDS011;3155;49.940;8.450;2022-11-09T03:44:22;0.80;;;0.80;;
6243;SDS011;3155;49.940;8.450;2022-11-09T03:46:49;1.70;;;0.82;;
6243;SDS011;3155;49.940;8.450;2022-11-09T03:49:16;0.70;;;0.70;;
6243;SDS011;3155;49.940;8.450;2022-11-09T03:51:42;0.77;;;0.77;;
6243;SDS011;3155;49.940;8.450;2022-11-09T03:54:09;0.57;;;0.57;;
6243;SDS011;3155;49.940;8.450;2022-11-09T03:56:36;0.55;;;0.55;;
6243;SDS011;3155;49.940;8.450;2022-11-09T03:59:03;0.50;;;0.50;;
6243;SDS011;3155;49.940;8.450;2022-11-09T04:01:33;0.80;;;0.80;;
6243;SDS011;3155;49.940;8.450;2022-11-09T04:04:00;0.50;;;0.50;;
6243;SDS011;3155;49.940;8.450;2022-11-09T04:06:26;0.45;;;0.45;;
6243;SDS011;3155;49.940;8.450;2022-11-09T04:08:53;1.67;;;0.40;;
6243;SDS011;3155;49.940;8.450;2022-11-09T04:11:20;0.50;;;0.50;;
6243;SDS011;3155;49.940;8.450;2022-11-09T04:13:49;0.50;;;0.30;;
6243;SDS011;3155;49.940;8.450;2022-11-09T04:16:16;0.35;;;0.35;;
6243;SDS011;3155;49.940;8.450;2022-11-09T04:18:43;0.50;;;0.50;;
6243;SDS011;3155;49.940;8.450;2022-11-09T04:21:09;0.47;;;0.47;;
6243;SDS011;3155;49.940;8.450;2022-11-09T04:23:36;0.25;;;0.25;;
6243;SDS011;3155;49.940;8.450;2022-11-09T04:26:03;0.30;;;0.30;;
6243;SDS011;3155;49.940;8.450;2022-11-09T04:28:29;0.80;;;0.80;;
6243;SDS011;3155;49.940;8.450;2022-11-09T04:30:58;0.80;;;0.80;;
6243;SDS011;3155;49.940;8.450;2022-11-09T04:33:27;0.82;;;0.50;;
6243;SDS011;3155;49.940;8.450;2022-11-09T04:35:54;0.90;;;0.90;;
6243;SDS011;3155;49.940;8.450;2022-11-09T04:38:20;0.80;;;0.80;;
6243;SDS011;3155;49.940;8.450;2022-11-09T04:40:47;0.93;;;0.93;;
6243;SDS011;3155;49.940;8.450;2022-11-09T04:43:14;0.93;;;0.82;;
6243;SDS011;3155;49.940;8.450;2022-11-09T04:45:41;0.77;;;0.75;;
6243;SDS011;3155;49.940;8.450;2022-11-09T04:48:09;0.90;;;0.90;;
6243;SDS011;3155;49.940;8.450;2022-11-09T04:50:37;0.63;;;0.63;;
6243;SDS011;3155;49.940;8.450;2022-11-09T04:53:08;1.55;;;1.17;;
6243;SDS011;3155;49.940;8.450;2022-11-09T04:55:36;1.05;;;1.00;;
6243;SDS011;3155;49.940;8.450;2022-11-09T04:58:03;1.13;;;0.98;;
6243;SDS011;3155;49.940;8.450;2022-11-09T05:00:31;0.95;;;0.95;;
6243;SDS011;3155;49.940;8.450;2022-11-09T05:03:02;0.80;;;0.80;;
6243;SDS011;3155;49.940;8.450;2022-11-09T05:05:31;1.08;;;1.08;;
6243;SDS011;3155;49.940;8.450;2022-11-09T05:08:00;1.37;;;1.37;;
6243;SDS011;3155;49.940;8.450;2022-11-09T05:10:27;1.45;;;1.35;;
6243;SDS011;3155;49.940;8.450;2022-11-09T05:13:12;1.70;;;1.08;;
6243;SDS011;3155;49.940;8.450;2022-11-09T05:15:39;1.45;;;1.17;;
6243;SDS011;3155;49.940;8.450;2022-11-09T05:18:07;1.03;;;1.03;;
6243;SDS011;3155;49.940;8.450;2022-11-09T05:20:34;1.43;;;1.30;;
6243;SDS011;3155;49.940;8.450;2022-11-09T05:23:01;1.13;;;1.10;;
6243;SDS011;3155;49.940;8.450;2022-11-09T05:25:48;1.30;;;1.20;;
6243;SDS011;3155;49.940;8.450;2022-11-09T05:28:14;1.02;;;1.02;;
6243;SDS011;3155;49.940;8.450;2022-11-09T05:30:41;1.13;;;1.13;;
6243;SDS011;3155;49.940;8.450;2022-11-09T05:33:08;1.08;;;1.08;;
6243;SDS011;3155;49.940;8.450;2022-11-09T05:35:35;1.55;;;1.25;;
6243;SDS011;3155;49.940;8.450;2022-11-09T05:38:01;1.70;;;1.30;;
6243;SDS011;3155;49.940;8.450;2022-11-09T05:40:29;1.15;;;1.13;;
6243;SDS011;3155;49.940;8.450;2022-11-09T05:42:57;1.27;;;0.95;;
6243;SDS011;3155;49.940;8.450;2022-11-09T05:45:23;1.30;;;1.20;;
6243;SDS011;3155;49.940;8.450;2022-11-09T05:48:07;1.48;;;1.38;;
6243;SDS011;3155;49.940;8.450;2022-11-09T05:50:34;1.52;;;1.40;;
6243;SDS011;3155;49.940;8.450;2022-11-09T05:53:01;1.60;;;1.50;;
6243;SDS011;3155;49.940;8.450;2022-11-09T05:55:31;2.20;;;1.40;;
6243;SDS011;3155;49.940;8.450;2022-11-09T05:57:58;1.30;;;1.30;;
6243;SDS011;3155;49.940;8.450;2022-11-09T06:00:34;2.00;;;1.42;;
6243;SDS011;3155;49.940;8.450;2022-11-09T06:03:02;2.10;;;1.42;;
6243;SDS011;3155;49.940;8.450;2022-11-09T06:05:33;2.10;;;1.47;;
6243;SDS011;3155;49.940;8.450;2022-11-09T06:08:11;1.10;;;1.10;;
6243;SDS011;3155;49.940;8.450;2022-11-09T06:10:42;3.10;;;1.35;;
6243;SDS011;3155;49.940;8.450;2022-11-09T06:13:09;1.50;;;1.40;;
6243;SDS011;3155;49.940;8.450;2022-11-09T06:15:38;1.40;;;1.30;;
6243;SDS011;3155;49.940;8.450;2022-11-09T06:18:04;1.15;;;1.15;;
6243;SDS011;3155;49.940;8.450;2022-11-09T06:20:31;1.70;;;1.60;;
6243;SDS011;3155;49.940;8.450;2022-11-09T06:22:59;1.45;;;1.35;;
6243;SDS011;3155;49.940;8.450;2022-11-09T06:25:30;1.20;;;1.10;;
6243;SDS011;3155;49.940;8.450;2022-11-09T06:27:57;1.77;;;1.67;;
6243;SDS011;3155;49.940;8.450;2022-11-09T06:30:24;1.45;;;1.40;;
6243;SDS011;3155;49.940;8.450;2022-11-09T06:32:56;3.05;;;1.65;;
6243;SDS011;3155;49.940;8.450;2022-11-09T06:35:27;1.50;;;1.40;;
6243;SDS011;3155;49.940;8.450;2022-11-09T06:37:57;1.73;;;1.52;;
6243;SDS011;3155;49.940;8.450;2022-11-09T06:40:25;1.23;;;1.23;;
6243;SDS011;3155;49.940;8.450;2022-11-09T06:42:57;1.73;;;1.63;;
6243;SDS011;3155;49.940;8.450;2022-11-09T06:45:28;1.77;;;1.55;;
6243;SDS011;3155;49.940;8.450;2022-11-09T06:47:59;2.40;;;1.42;;
6243;SDS011;3155;49.940;8.450;2022-11-09T06:50:28;1.55;;;1.55;;
6243;SDS011;3155;49.940;8.450;2022-11-09T06:52:57;1.50;;;0.95;;
6243;SDS011;3155;49.940;8.450;2022-11-09T06:55:25;1.58;;;1.48;;
6243;SDS011;3155;49.940;8.450;2022-11-09T06:57:53;1.73;;;1.43;;
6243;SDS011;3155;49.940;8.450;2022-11-09T07:00:21;1.52;;;1.42;;
6243;SDS011;3155;49.940;8.450;2022-11-09T07:02:50;1.70;;;1.60;;
6243;SDS011;3155;49.940;8.450;2022-11-09T07:05:17;1.50;;;1.30;;
6243;SDS011;3155;49.940;8.450;2022-11-09T07:07:44;1.42;;;1.38;;
6243;SDS011;3155;49.940;8.450;2022-11-09T07:10:11;1.65;;;1.55;;
6243;SDS011;3155;49.940;8.450;2022-11-09T07:12:38;1.63;;;1.55;;
6243;SDS011;3155;49.940;8.450;2022-11-09T07:15:05;1.30;;;1.20;;
6243;SDS011;3155;49.940;8.450;2022-11-09T07:17:32;1.90;;;1.80;;
6243;SDS011;3155;49.940;8.450;2022-11-09T07:20:00;1.83;;;1.53;;
6243;SDS011;3155;49.940;8.450;2022-11-09T07:22:26;1.50;;;1.40;;
6243;SDS011;3155;49.940;8.450;2022-11-09T07:24:53;1.45;;;1.45;;
6243;SDS011;3155;49.940;8.450;2022-11-09T07:27:21;1.35;;;1.25;;
6243;SDS011;3155;49.940;8.450;2022-11-09T07:29:53;1.27;;;1.20;;
6243;SDS011;3155;49.940;8.450;2022-11-09T07:35:22;1.38;;;1.27;;
6243;SDS011;3155;49.940;8.450;2022-11-09T07:37:50;1.48;;;1.30;;
6243;SDS011;3155;49.940;8.450;2022-11-09T07:40:24;1.35;;;1.25;;
6243;SDS011;3155;49.940;8.450;2022-11-09T07:42:51;1.13;;;1.13;;
6243;SDS011;3155;49.940;8.450;2022-11-09T07:45:17;1.58;;;1.48;;
6243;SDS011;3155;49.940;8.450;2022-11-09T07:47:44;1.40;;;1.30;;
6243;SDS011;3155;49.940;8.450;2022-11-09T07:50:10;1.73;;;1.63;;
6243;SDS011;3155;49.940;8.450;2022-11-09T07:52:37;1.83;;;1.73;;
6243;SDS011;3155;49.940;8.450;2022-11-09T07:55:04;3.80;;;2.20;;
6243;SDS011;3155;49.940;8.450;2022-11-09T07:57:31;1.80;;;1.70;;
6243;SDS011;3155;49.940;8.450;2022-11-09T07:59:58;1.95;;;1.85;;
6243;SDS011;3155;49.940;8.450;2022-11-09T08:02:25;1.73;;;1.63;;
6243;SDS011;3155;49.940;8.450;2022-11-09T08:04:52;2.05;;;1.95;;
6243;SDS011;3155;49.940;8.450;2022-11-09T08:07:19;1.85;;;1.75;;
6243;SDS011;3155;49.940;8.450;2022-11-09T08:09:48;1.58;;;1.48;;
6243;SDS011;3155;49.940;8.450;2022-11-09T08:12:15;1.42;;;1.38;;
6243;SDS011;3155;49.940;8.450;2022-11-09T08:14:44;1.60;;;1.52;;
6243;SDS011;3155;49.940;8.450;2022-11-09T08:17:11;1.90;;;1.70;;
6243;SDS011;3155;49.940;8.450;2022-11-09T08:19:38;1.45;;;1.40;;
6243;SDS011;3155;49.940;8.450;2022-11-09T08:22:05;1.45;;;1.35;;
6243;SDS011;3155;49.940;8.450;2022-11-09T08:24:32;1.45;;;1.20;;
6243;SDS011;3155;49.940;8.450;2022-11-09T08:26:59;1.40;;;1.30;;
6243;SDS011;3155;49.940;8.450;2022-11-09T08:29:25;0.73;;;0.73;;
6243;SDS011;3155;49.940;8.450;2022-11-09T08:31:52;0.70;;;0.70;;
6243;SDS011;3155;49.940;8.450;2022-11-09T08:34:21;1.10;;;1.10;;
6243;SDS011;3155;49.940;8.450;2022-11-09T08:36:47;1.00;;;1.00;;
6243;SDS011;3155;49.940;8.450;2022-11-09T08:39:14;0.95;;;0.82;;
6243;SDS011;3155;49.940;8.450;2022-11-09T08:41:41;0.60;;;0.60;;
6243;SDS011;3155;49.940;8.450;2022-11-09T08:44:07;0.52;;;0.52;;
6243;SDS011;3155;49.940;8.450;2022-11-09T08:46:36;1.10;;;1.10;;
6243;SDS011;3155;49.940;8.450;2022-11-09T08:49:06;0.50;;;0.50;;
6243;SDS011;3155;49.940;8.450;2022-11-09T08:51:36;0.80;;;0.63;;
6243;SDS011;3155;49.940;8.450;2022-11-09T08:54:02;1.00;;;0.80;;
6243;SDS011;3155;49.940;8.450;2022-11-09T08:56:29;0.65;;;0.65;;
6243;SDS011;3155;49.940;8.450;2022-11-09T08:58:56;0.55;;;0.55;;
6243;SDS011;3155;49.940;8.450;2022-11-09T09:01:22;1.95;;;0.95;;
6243;SDS011;3155;49.940;8.450;2022-11-09T09:03:50;0.60;;;0.60;;
6243;SDS011;3155;49.940;8.450;2022-11-09T09:06:17;0.70;;;0.70;;
6243;SDS011;3155;49.940;8.450;2022-11-09T09:08:44;1.70;;;0.43;;
6243;SDS011;3155;49.940;8.450;2022-11-09T09:11:11;0.52;;;0.52;;
6243;SDS011;3155;49.940;8.450;2022-11-09T09:13:41;0.60;;;0.60;;
6243;SDS011;3155;49.940;8.450;2022-11-09T09:16:10;0.50;;;0.50;;
6243;SDS011;3155;49.940;8.450;2022-11-09T09:18:40;0.43;;;0.43;;
6243;SDS011;3155;49.940;8.450;2022-11-09T09:21:08;1.20;;;0.40;;
6243;SDS011;3155;49.940;8.450;2022-11-09T09:23:35;0.73;;;0.70;;
6243;SDS011;3155;49.940;8.450;2022-11-09T09:26:02;0.40;;;0.37;;
6243;SDS011;3155;49.940;8.450;2022-11-09T09:28:29;0.32;;;0.32;;
6243;SDS011;3155;49.940;8.450;2022-11-09T09:30:59;0.40;;;0.40;;
6243;SDS011;3155;49.940;8.450;2022-11-09T09:33:27;1.10;;;0.35;;
6243;SDS011;3155;49.940;8.450;2022-11-09T09:35:56;0.80;;;0.40;;
6243;SDS011;3155;49.940;8.450;2022-11-09T09:38:24;0.30;;;0.30;;
6243;SDS011;3155;49.940;8.450;2022-11-09T09:41:01;0.50;;;0.40;;
6243;SDS011;3155;49.940;8.450;2022-11-09T09:43:43;0.47;;;0.38;;
6243;SDS011;3155;49.940;8.450;2022-11-09T09:46:15;0.20;;;0.20;;
6243;SDS011;3155;49.940;8.450;2022-11-09T09:48:47;0.30;;;0.30;;
6243;SDS011;3155;49.940;8.450;2022-11-09T09:51:26;0.40;;;0.40;;
6243;SDS011;3155;49.940;8.450;2022-11-09T09:54:06;0.20;;;0.20;;
6243;SDS011;3155;49.940;8.450;2022-11-09T09:56:40;0.28;;;0.20;;
6243;SDS011;3155;49.940;8.450;2022-11-09T10:01:52;0.35;;;0.35;;
6243;SDS011;3155;49.940;8.450;2022-11-09T10:04:20;0.70;;;0.30;;
6243;SDS011;3155;49.940;8.450;2022-11-09T10:09:22;0.13;;;0.13;;
6243;SDS011;3155;49.940;8.450;2022-11-09T10:12:17;0.20;;;0.20;;
6243;SDS011;3155;49.940;8.450;2022-11-09T10:18:58;0.20;;;0.20;;
6243;SDS011;3155;49.940;8.450;2022-11-09T10:21:05;0.20;;;0.20;;
6243;SDS011;3155;49.940;8.450;2022-11-09T10:29:25;0.60;;;0.60;;
6243;SDS011;3155;49.940;8.450;2022-11-09T10:31:58;0.20;;;0.20;;
6243;SDS011;3155;49.940;8.450;2022-11-09T10:34:39;0.43;;;0.30;;
6243;SDS011;3155;49.940;8.450;2022-11-09T10:37:27;0.20;;;0.20;;
6243;SDS011;3155;49.940;8.450;2022-11-09T10:40:03;0.20;;;0.20;;
6243;SDS011;3155;49.940;8.450;2022-11-09T10:42:34;0.20;;;0.20;;
6243;SDS011;3155;49.940;8.450;2022-11-09T10:45:11;0.30;;;0.30;;
6243;SDS011;3155;49.940;8.450;2022-11-09T10:47:49;0.20;;;0.20;;
6243;SDS011;3155;49.940;8.450;2022-11-09T10:52:48;0.20;;;0.20;;
6243;SDS011;3155;49.940;8.450;2022-11-09T10:55:25;0.20;;;0.20;;
6243;SDS011;3155;49.940;8.450;2022-11-09T10:58:00;0.40;;;0.30;;
6243;SDS011;3155;49.940;8.450;2022-11-09T11:03:31;1.55;;;0.38;;
6243;SDS011;3155;49.940;8.450;2022-11-09T11:06:02;0.30;;;0.30;;
6243;SDS011;3155;49.940;8.450;2022-11-09T11:08:44;0.40;;;0.40;;
6243;SDS011;3155;49.940;8.450;2022-11-09T11:11:14;0.30;;;0.30;;
6243;SDS011;3155;49.940;8.450;2022-11-09T11:14:14;0.30;;;0.30;;
6243;SDS011;3155;49.940;8.450;2022-11-09T11:16:54;1.00;;;0.50;;
6243;SDS011;3155;49.940;8.450;2022-11-09T11:19:32;0.30;;;0.30;;
6243;SDS011;3155;49.940;8.450;2022-11-09T11:32:56;0.20;;;0.20;;
6243;SDS011;3155;49.940;8.450;2022-11-09T11:35:32;0.80;;;0.30;;
6243;SDS011;3155;49.940;8.450;2022-11-09T11:38:12;0.30;;;0.30;;
6243;SDS011;3155;49.940;8.450;2022-11-09T11:49:31;0.30;;;0.30;;
6243;SDS011;3155;49.940;8.450;2022-11-09T11:57:50;0.30;;;0.30;;
6243;SDS011;3155;49.940;8.450;2022-11-09T12:00:46;1.80;;;0.55;;
6243;SDS011;3155;49.940;8.450;2022-11-09T12:06:42;0.40;;;0.40;;
6243;SDS011;3155;49.940;8.450;2022-11-09T12:17:51;0.50;;;0.50;;
6243;SDS011;3155;49.940;8.450;2022-11-09T12:20:45;0.40;;;0.40;;
6243;SDS011;3155;49.940;8.450;2022-11-09T12:26:29;0.38;;;0.30;;
6243;SDS011;3155;49.940;8.450;2022-11-09T12:29:17;0.30;;;0.30;;
6243;SDS011;3155;49.940;8.450;2022-11-09T12:31:56;0.43;;;0.43;;
6243;SDS011;3155;49.940;8.450;2022-11-09T12:34:33;0.30;;;0.30;;
6243;SDS011;3155;49.940;8.450;2022-11-09T12:37:33;0.50;;;0.30;;
6243;SDS011;3155;49.940;8.450;2022-11-09T12:40:20;0.30;;;0.30;;
6243;SDS011;3155;49.940;8.450;2022-11-09T12:43:51;0.30;;;0.30;;
6243;SDS011;3155;49.940;8.450;2022-11-09T12:45:46;0.40;;;0.40;;
6243;SDS011;3155;49.940;8.450;2022-11-09T12:50:45;0.40;;;0.40;;
6243;SDS011;3155;49.940;8.450;2022-11-09T12:53:13;0.30;;;0.30;;
6243;SDS011;3155;49.940;8.450;2022-11-09T12:58:21;1.23;;;0.40;;
6243;SDS011;3155;49.940;8.450;2022-11-09T13:00:51;0.55;;;0.45;;
6243;SDS011;3155;49.940;8.450;2022-11-09T13:03:21;0.40;;;0.20;;
6243;SDS011;3155;49.940;8.450;2022-11-09T13:08:35;0.68;;;0.38;;
6243;SDS011;3155;49.940;8.450;2022-11-09T13:11:07;0.20;;;0.20;;
6243;SDS011;3155;49.940;8.450;2022-11-09T13:13:36;0.20;;;0.20;;
6243;SDS011;3155;49.940;8.450;2022-11-09T13:18:46;0.28;;;0.28;;
6243;SDS011;3155;49.940;8.450;2022-11-09T13:23:49;0.35;;;0.35;;
6243;SDS011;3155;49.940;8.450;2022-11-09T13:43:12;0.20;;;0.20;;
6243;SDS011;3155;49.940;8.450;2022-11-09T13:45:45;0.20;;;0.20;;
6243;SDS011;3155;49.940;8.450;2022-11-09T13:50:54;1.00;;;0.40;;
6243;SDS011;3155;49.940;8.450;2022-11-09T13:53:27;3.00;;;0.38;;
6243;SDS011;3155;49.940;8.450;2022-11-09T13:59:19;0.30;;;0.30;;
6243;SDS011;3155;49.940;8.450;2022-11-09T14:01:51;0.40;;;0.40;;
6243;SDS011;3155;49.940;8.450;2022-11-09T14:07:02;0.30;;;0.20;;
6243;SDS011;3155;49.940;8.450;2022-11-09T14:17:26;0.15;;;0.15;;
6243;SDS011;3155;49.940;8.450;2022-11-09T14:22:52;0.30;;;0.30;;
6243;SDS011;3155;49.940;8.450;2022-11-09T14:25:20;0.20;;;0.20;;
6243;SDS011;3155;49.940;8.450;2022-11-09T14:27:52;0.10;;;0.10;;
6243;SDS011;3155;49.940;8.450;2022-11-09T14:30:25;0.40;;;0.40;;
6243;SDS011;3155;49.940;8.450;2022-11-09T14:32:54;0.20;;;0.20;;
6243;SDS011;3155;49.940;8.450;2022-11-09T14:37:56;0.20;;;0.20;;
6243;SDS011;3155;49.940;8.450;2022-11-09T14:40:28;0.20;;;0.13;;
6243;SDS011;3155;49.940;8.450;2022-11-09T14:46:01;0.20;;;0.20;;
6243;SDS011;3155;49.940;8.450;2022-11-09T14:48:30;0.10;;;0.10;;
6243;SDS011;3155;49.940;8.450;2022-11-09T14:50:59;2.50;;;0.30;;
6243;SDS011;3155;49.940;8.450;2022-11-09T14:53:29;0.20;;;0.20;;
6243;SDS011;3155;49.940;8.450;2022-11-09T14:56:04;0.20;;;0.10;;
6243;SDS011;3155;49.940;8.450;2022-11-09T14:58:34;0.30;;;0.30;;
6243;SDS011;3155;49.940;8.450;2022-11-09T15:06:47;0.35;;;0.35;;
6243;SDS011;3155;49.940;8.450;2022-11-09T15:09:21;0.90;;;0.20;;
6243;SDS011;3155;49.940;8.450;2022-11-09T15:11:52;0.25;;;0.25;;
6243;SDS011;3155;49.940;8.450;2022-11-09T15:14:27;0.30;;;0.30;;
6243;SDS011;3155;49.940;8.450;2022-11-09T15:16:59;0.30;;;0.30;;
6243;SDS011;3155;49.940;8.450;2022-11-09T15:19:53;0.40;;;0.40;;
6243;SDS011;3155;49.940;8.450;2022-11-09T15:32:58;1.00;;;0.20;;
6243;SDS011;3155;49.940;8.450;2022-11-09T15:35:26;0.17;;;0.17;;
6243;SDS011;3155;49.940;8.450;2022-11-09T15:37:53;0.20;;;0.20;;
6243;SDS011;3155;49.940;8.450;2022-11-09T15:40:22;0.13;;;0.13;;
6243;SDS011;3155;49.940;8.450;2022-11-09T15:42:50;0.20;;;0.20;;
6243;SDS011;3155;49.940;8.450;2022-11-09T15:45:17;1.80;;;0.20;;
6243;SDS011;3155;49.940;8.450;2022-11-09T15:47:53;0.50;;;0.30;;
6243;SDS011;3155;49.940;8.450;2022-11-09T15:50:22;0.17;;;0.13;;
6243;SDS011;3155;49.940;8.450;2022-11-09T15:52:51;0.45;;;0.45;;
6243;SDS011;3155;49.940;8.450;2022-11-09T15:55:20;0.13;;;0.13;;
6243;SDS011;3155;49.940;8.450;2022-11-09T15:57:48;0.30;;;0.30;;
6243;SDS011;3155;49.940;8.450;2022-11-09T16:00:18;0.20;;;0.20;;
6243;SDS011;3155;49.940;8.450;2022-11-09T16:02:46;0.20;;;0.20;;
6243;SDS011;3155;49.940;8.450;2022-11-09T16:05:13;0.20;;;0.20;;
6243;SDS011;3155;49.940;8.450;2022-11-09T16:07:47;0.40;;;0.40;;
6243;SDS011;3155;49.940;8.450;2022-11-09T16:10:15;0.30;;;0.30;;
6243;SDS011;3155;49.940;8.450;2022-11-09T16:12:45;0.40;;;0.40;;
6243;SDS011;3155;49.940;8.450;2022-11-09T16:15:12;0.15;;;0.15;;
6243;SDS011;3155;49.940;8.450;2022-11-09T16:17:39;0.30;;;0.20;;
6243;SDS011;3155;49.940;8.450;2022-11-09T16:20:06;0.10;;;0.10;;
6243;SDS011;3155;49.940;8.450;2022-11-09T16:22:33;0.30;;;0.30;;
6243;SDS011;3155;49.940;8.450;2022-11-09T16:25:00;1.35;;;0.65;;
6243;SDS011;3155;49.940;8.450;2022-11-09T16:27:30;0.35;;;0.20;;
6243;SDS011;3155;49.940;8.450;2022-11-09T16:30:16;0.20;;;0.20;;
6243;SDS011;3155;49.940;8.450;2022-11-09T16:32:44;0.80;;;0.30;;
6243;SDS011;3155;49.940;8.450;2022-11-09T16:35:11;0.22;;;0.22;;
6243;SDS011;3155;49.940;8.450;2022-11-09T16:37:53;0.10;;;0.10;;
6243;SDS011;3155;49.940;8.450;2022-11-09T16:40:20;0.70;;;0.20;;
6243;SDS011;3155;49.940;8.450;2022-11-09T16:42:48;0.85;;;0.50;;
6243;SDS011;3155;49.940;8.450;2022-11-09T16:45:16;0.45;;;0.45;;
6243;SDS011;3155;49.940;8.450;2022-11-09T16:47:47;0.22;;;0.20;;
6243;SDS011;3155;49.940;8.450;2022-11-09T16:50:16;0.30;;;0.30;;
6243;SDS011;3155;49.940;8.450;2022-11-09T16:52:43;0.70;;;0.30;;
6243;SDS011;3155;49.940;8.450;2022-11-09T16:55:10;0.30;;;0.30;;
6243;SDS011;3155;49.940;8.450;2022-11-09T16:57:37;0.40;;;0.40;;
6243;SDS011;3155;49.940;8.450;2022-11-09T17:00:04;0.20;;;0.20;;
6243;SDS011;3155;49.940;8.450;2022-11-09T17:02:32;0.20;;;0.20;;
6243;SDS011;3155;49.940;8.450;2022-11-09T17:04:59;1.00;;;0.30;;
6243;SDS011;3155;49.940;8.450;2022-11-09T17:07:26;0.30;;;0.30;;
6243;SDS011;3155;49.940;8.450;2022-11-09T17:09:53;0.20;;;0.20;;
6243;SDS011;3155;49.940;8.450;2022-11-09T17:12:20;0.20;;;0.20;;
6243;SDS011;3155;49.940;8.450;2022-11-09T17:14:47;0.20;;;0.20;;
6243;SDS011;3155;49.940;8.450;2022-11-09T17:17:14;0.20;;;0.20;;
6243;SDS011;3155;49.940;8.450;2022-11-09T17:19:47;0.20;;;0.20;;
6243;SDS011;3155;49.940;8.450;2022-11-09T17:22:14;0.30;;;0.30;;
6243;SDS011;3155;49.940;8.450;2022-11-09T17:24:41;0.20;;;0.20;;
6243;SDS011;3155;49.940;8.450;2022-11-09T17:27:09;0.30;;;0.30;;
6243;SDS011;3155;49.940;8.450;2022-11-09T17:29:36;0.60;;;0.30;;
6243;SDS011;3155;49.940;8.450;2022-11-09T17:32:04;0.20;;;0.20;;
6243;SDS011;3155;49.940;8.450;2022-11-09T17:34:33;1.10;;;0.40;;
6243;SDS011;3155;49.940;8.450;2022-11-09T17:37:00;0.22;;;0.22;;
6243;SDS011;3155;49.940;8.450;2022-11-09T17:39:33;0.33;;;0.20;;
6243;SDS011;3155;49.940;8.450;2022-11-09T17:42:00;0.30;;;0.30;;
6243;SDS011;3155;49.940;8.450;2022-11-09T17:44:26;0.20;;;0.20;;
6243;SDS011;3155;49.940;8.450;2022-11-09T17:46:53;1.30;;;0.20;;
6243;SDS011;3155;49.940;8.450;2022-11-09T17:49:20;0.20;;;0.20;;